Estación Meteorológica Peña el Pijo (Robertgarden) [ 02/03/23 03:06:22 CET ]

Fecha Hora Presion(HPa) Temp (°C) Humedad % Rocio (°C) Viento ( m/s) Direccion Lluvia 1Hora(mm) Lluvia 24H(mm) LLuvia Total(mm)
2012-Apr-04 01:01:16 998.800 6.5 84 4.0         155.40
2012-Apr-04 02:01:13 998.700 4.9 85 2.5         155.40
2012-Apr-04 03:01:45 998.500 3.8 87 1.8         155.40
2012-Apr-04 04:03:22 998.000 3.6 89 1.9         155.40
2012-Apr-04 05:01:11 997.800 3.8 90 2.3         155.40
2012-Apr-04 06:01:12 997.500 3.9 91 2.5         155.40
2012-Apr-04 07:01:22 997.100 4.6 91 3.2         155.40
2012-Apr-04 08:01:18 997.500 4.5 92 3.3         155.40
2012-Apr-04 09:01:11 997.800 5.8 92 4.6         155.40
2012-Apr-04 10:01:17 998.100 8.9 90 7.4         155.40
2012-Apr-04 11:01:12 998.400 10.3 78 6.6         155.40
2012-Apr-04 12:01:13 998.800 11.9 67 5.9         155.40
2012-Apr-04 13:01:12 998.700 12.2 67 6.2         155.40
2012-Apr-04 14:01:12 998.000 15.1 60 7.4         155.40
2012-Apr-04 15:01:17 998.000 11.1 74 6.7         155.40
2012-Apr-04 16:01:13 997.600 13.8 62 6.6 0.7 S     155.40
2012-Apr-04 17:01:15 997.600 12.8 61 5.4 2.9 SSE     155.40
2012-Apr-04 18:01:12 997.500 12.1 63 5.2 1.1 SE     155.40
2012-Apr-04 19:01:13 997.500 11.1 66 5.0         155.40
2012-Apr-04 20:01:18 997.900 9.3 71 4.3         155.40
2012-Apr-04 21:01:16 998.500 8.3 74 3.9         155.40
2012-Apr-04 22:01:14 999.400 7.7 75 3.5         155.40
2012-Apr-04 23:01:11 999.600 6.2 75 2.1         155.40

Temperatura Máxima:15°    Temperatura Mínima:
Presión Máxima:999.600 Hpa    Presión Mínima:997.100 Hpa


Volver